sensor_id;sensor_type;location;lat;lon;timestamp;P1;durP1;ratioP1;P2;durP2;ratioP2
39242;SDS011;29823;47.404;8.566;2024-02-21T00:00:22;6.22;;;2.42;;
39242;SDS011;29823;47.404;8.566;2024-02-21T00:02:50;9.40;;;2.78;;
39242;SDS011;29823;47.404;8.566;2024-02-21T00:05:18;9.88;;;2.30;;
39242;SDS011;29823;47.404;8.566;2024-02-21T00:07:45;9.68;;;2.83;;
39242;SDS011;29823;47.404;8.566;2024-02-21T00:10:13;7.30;;;2.80;;
39242;SDS011;29823;47.404;8.566;2024-02-21T00:12:41;11.82;;;3.28;;
39242;SDS011;29823;47.404;8.566;2024-02-21T00:15:09;11.05;;;2.78;;
39242;SDS011;29823;47.404;8.566;2024-02-21T00:17:38;6.95;;;2.85;;
39242;SDS011;29823;47.404;8.566;2024-02-21T00:20:06;9.18;;;2.75;;
39242;SDS011;29823;47.404;8.566;2024-02-21T00:22:34;14.82;;;3.20;;
39242;SDS011;29823;47.404;8.566;2024-02-21T00:25:02;12.40;;;2.90;;
39242;SDS011;29823;47.404;8.566;2024-02-21T00:27:30;7.95;;;2.90;;
39242;SDS011;29823;47.404;8.566;2024-02-21T00:29:58;10.40;;;2.70;;
39242;SDS011;29823;47.404;8.566;2024-02-21T00:32:26;7.40;;;2.80;;
39242;SDS011;29823;47.404;8.566;2024-02-21T00:34:55;12.02;;;3.47;;
39242;SDS011;29823;47.404;8.566;2024-02-21T00:37:22;11.02;;;2.75;;
39242;SDS011;29823;47.404;8.566;2024-02-21T00:39:50;10.48;;;3.03;;
39242;SDS011;29823;47.404;8.566;2024-02-21T00:42:18;12.82;;;3.33;;
39242;SDS011;29823;47.404;8.566;2024-02-21T00:44:45;10.10;;;3.03;;
39242;SDS011;29823;47.404;8.566;2024-02-21T00:47:13;8.95;;;3.17;;
39242;SDS011;29823;47.404;8.566;2024-02-21T00:49:41;7.63;;;3.00;;
39242;SDS011;29823;47.404;8.566;2024-02-21T00:52:10;6.57;;;2.97;;
39242;SDS011;29823;47.404;8.566;2024-02-21T00:54:38;5.25;;;2.20;;
39242;SDS011;29823;47.404;8.566;2024-02-21T00:57:18;5.82;;;2.15;;
39242;SDS011;29823;47.404;8.566;2024-02-21T00:59:46;6.93;;;2.53;;
39242;SDS011;29823;47.404;8.566;2024-02-21T01:02:13;9.30;;;2.20;;
39242;SDS011;29823;47.404;8.566;2024-02-21T01:04:41;6.93;;;2.40;;
39242;SDS011;29823;47.404;8.566;2024-02-21T01:07:11;4.97;;;2.00;;
39242;SDS011;29823;47.404;8.566;2024-02-21T01:09:38;6.25;;;2.40;;
39242;SDS011;29823;47.404;8.566;2024-02-21T01:12:06;4.82;;;2.42;;
39242;SDS011;29823;47.404;8.566;2024-02-21T01:14:34;7.15;;;2.88;;
39242;SDS011;29823;47.404;8.566;2024-02-21T01:17:01;5.22;;;2.58;;
39242;SDS011;29823;47.404;8.566;2024-02-21T01:19:29;8.50;;;2.80;;
39242;SDS011;29823;47.404;8.566;2024-02-21T01:21:57;5.72;;;2.30;;
39242;SDS011;29823;47.404;8.566;2024-02-21T01:24:26;7.97;;;2.70;;
39242;SDS011;29823;47.404;8.566;2024-02-21T01:26:54;10.40;;;3.08;;
39242;SDS011;29823;47.404;8.566;2024-02-21T01:29:21;9.52;;;2.75;;
39242;SDS011;29823;47.404;8.566;2024-02-21T01:31:49;8.80;;;3.00;;
39242;SDS011;29823;47.404;8.566;2024-02-21T01:34:17;12.13;;;3.33;;
39242;SDS011;29823;47.404;8.566;2024-02-21T01:36:44;4.65;;;2.70;;
39242;SDS011;29823;47.404;8.566;2024-02-21T01:39:12;6.43;;;2.65;;
39242;SDS011;29823;47.404;8.566;2024-02-21T01:41:41;5.53;;;2.72;;
39242;SDS011;29823;47.404;8.566;2024-02-21T01:44:09;10.73;;;3.42;;
39242;SDS011;29823;47.404;8.566;2024-02-21T01:46:37;6.57;;;2.83;;
39242;SDS011;29823;47.404;8.566;2024-02-21T01:49:04;7.88;;;3.00;;
39242;SDS011;29823;47.404;8.566;2024-02-21T01:51:32;8.95;;;2.78;;
39242;SDS011;29823;47.404;8.566;2024-02-21T01:54:00;13.93;;;2.40;;
39242;SDS011;29823;47.404;8.566;2024-02-21T01:56:27;4.13;;;2.13;;
39242;SDS011;29823;47.404;8.566;2024-02-21T01:58:57;6.13;;;2.25;;
39242;SDS011;29823;47.404;8.566;2024-02-21T02:01:24;3.33;;;1.75;;
39242;SDS011;29823;47.404;8.566;2024-02-21T02:03:52;7.78;;;2.38;;
39242;SDS011;29823;47.404;8.566;2024-02-21T02:06:20;9.02;;;2.00;;
39242;SDS011;29823;47.404;8.566;2024-02-21T02:08:48;6.30;;;2.20;;
39242;SDS011;29823;47.404;8.566;2024-02-21T02:11:16;2.75;;;1.52;;
39242;SDS011;29823;47.404;8.566;2024-02-21T02:13:45;5.32;;;2.17;;
39242;SDS011;29823;47.404;8.566;2024-02-21T02:16:14;7.68;;;1.70;;
39242;SDS011;29823;47.404;8.566;2024-02-21T02:18:41;3.53;;;1.70;;
39242;SDS011;29823;47.404;8.566;2024-02-21T02:21:10;5.40;;;1.83;;
39242;SDS011;29823;47.404;8.566;2024-02-21T02:23:39;3.72;;;1.80;;
39242;SDS011;29823;47.404;8.566;2024-02-21T02:26:08;8.15;;;3.00;;
39242;SDS011;29823;47.404;8.566;2024-02-21T02:28:36;8.82;;;2.45;;
39242;SDS011;29823;47.404;8.566;2024-02-21T02:31:04;6.03;;;2.55;;
39242;SDS011;29823;47.404;8.566;2024-02-21T02:33:31;5.68;;;2.72;;
39242;SDS011;29823;47.404;8.566;2024-02-21T02:35:59;6.63;;;2.42;;
39242;SDS011;29823;47.404;8.566;2024-02-21T02:38:27;6.28;;;3.22;;
39242;SDS011;29823;47.404;8.566;2024-02-21T02:40:56;6.35;;;2.30;;
39242;SDS011;29823;47.404;8.566;2024-02-21T02:43:24;5.50;;;2.10;;
39242;SDS011;29823;47.404;8.566;2024-02-21T02:45:51;3.80;;;2.05;;
39242;SDS011;29823;47.404;8.566;2024-02-21T02:48:19;7.40;;;2.17;;
39242;SDS011;29823;47.404;8.566;2024-02-21T02:50:47;3.60;;;1.58;;
39242;SDS011;29823;47.404;8.566;2024-02-21T02:53:15;8.07;;;2.15;;
39242;SDS011;29823;47.404;8.566;2024-02-21T02:55:43;6.85;;;2.28;;
39242;SDS011;29823;47.404;8.566;2024-02-21T02:58:12;4.65;;;2.03;;
39242;SDS011;29823;47.404;8.566;2024-02-21T03:00:40;5.68;;;1.90;;
39242;SDS011;29823;47.404;8.566;2024-02-21T03:03:08;3.72;;;1.98;;
39242;SDS011;29823;47.404;8.566;2024-02-21T03:05:36;6.28;;;1.80;;
39242;SDS011;29823;47.404;8.566;2024-02-21T03:08:04;5.50;;;1.83;;
39242;SDS011;29823;47.404;8.566;2024-02-21T03:10:33;3.20;;;1.83;;
39242;SDS011;29823;47.404;8.566;2024-02-21T03:13:01;6.65;;;2.13;;
39242;SDS011;29823;47.404;8.566;2024-02-21T03:15:31;3.33;;;1.83;;
39242;SDS011;29823;47.404;8.566;2024-02-21T03:17:59;4.38;;;2.00;;
39242;SDS011;29823;47.404;8.566;2024-02-21T03:20:26;3.50;;;1.83;;
39242;SDS011;29823;47.404;8.566;2024-02-21T03:22:54;4.68;;;2.55;;
39242;SDS011;29823;47.404;8.566;2024-02-21T03:25:22;3.15;;;2.10;;
39242;SDS011;29823;47.404;8.566;2024-02-21T03:27:51;6.85;;;2.30;;
39242;SDS011;29823;47.404;8.566;2024-02-21T03:30:19;13.02;;;2.28;;
39242;SDS011;29823;47.404;8.566;2024-02-21T03:32:48;4.88;;;2.00;;
39242;SDS011;29823;47.404;8.566;2024-02-21T03:35:16;4.57;;;2.28;;
39242;SDS011;29823;47.404;8.566;2024-02-21T03:37:44;4.00;;;2.20;;
39242;SDS011;29823;47.404;8.566;2024-02-21T03:40:12;7.78;;;2.30;;
39242;SDS011;29823;47.404;8.566;2024-02-21T03:42:39;6.93;;;2.20;;
39242;SDS011;29823;47.404;8.566;2024-02-21T03:45:08;4.85;;;2.20;;
39242;SDS011;29823;47.404;8.566;2024-02-21T03:47:35;3.92;;;2.10;;
39242;SDS011;29823;47.404;8.566;2024-02-21T03:50:05;5.65;;;1.95;;
39242;SDS011;29823;47.404;8.566;2024-02-21T03:52:33;7.80;;;1.92;;
39242;SDS011;29823;47.404;8.566;2024-02-21T03:55:01;4.03;;;1.80;;
39242;SDS011;29823;47.404;8.566;2024-02-21T03:57:28;7.85;;;2.35;;
39242;SDS011;29823;47.404;8.566;2024-02-21T03:59:56;9.75;;;2.10;;
39242;SDS011;29823;47.404;8.566;2024-02-21T04:02:24;2.78;;;1.63;;
39242;SDS011;29823;47.404;8.566;2024-02-21T04:04:51;4.53;;;2.28;;
39242;SDS011;29823;47.404;8.566;2024-02-21T04:07:21;6.03;;;2.50;;
39242;SDS011;29823;47.404;8.566;2024-02-21T04:09:48;6.07;;;2.65;;
39242;SDS011;29823;47.404;8.566;2024-02-21T04:12:16;4.28;;;2.10;;
39242;SDS011;29823;47.404;8.566;2024-02-21T04:14:43;11.48;;;2.20;;
39242;SDS011;29823;47.404;8.566;2024-02-21T04:17:13;3.65;;;2.08;;
39242;SDS011;29823;47.404;8.566;2024-02-21T04:19:40;6.00;;;1.85;;
39242;SDS011;29823;47.404;8.566;2024-02-21T04:22:08;9.43;;;2.72;;
39242;SDS011;29823;47.404;8.566;2024-02-21T04:24:37;5.68;;;2.30;;
39242;SDS011;29823;47.404;8.566;2024-02-21T04:27:04;8.13;;;2.08;;
39242;SDS011;29823;47.404;8.566;2024-02-21T04:29:32;5.93;;;2.45;;
39242;SDS011;29823;47.404;8.566;2024-02-21T04:32:01;5.47;;;2.50;;
39242;SDS011;29823;47.404;8.566;2024-02-21T04:34:29;5.50;;;2.70;;
39242;SDS011;29823;47.404;8.566;2024-02-21T04:36:57;3.90;;;2.45;;
39242;SDS011;29823;47.404;8.566;2024-02-21T04:39:24;4.38;;;2.13;;
39242;SDS011;29823;47.404;8.566;2024-02-21T04:41:53;6.75;;;2.00;;
39242;SDS011;29823;47.404;8.566;2024-02-21T04:44:21;4.63;;;1.83;;
39242;SDS011;29823;47.404;8.566;2024-02-21T04:46:49;4.88;;;1.90;;
39242;SDS011;29823;47.404;8.566;2024-02-21T04:49:16;4.10;;;2.20;;
39242;SDS011;29823;47.404;8.566;2024-02-21T04:51:44;5.45;;;2.30;;
39242;SDS011;29823;47.404;8.566;2024-02-21T04:54:12;7.65;;;2.55;;
39242;SDS011;29823;47.404;8.566;2024-02-21T04:56:39;3.45;;;2.25;;
39242;SDS011;29823;47.404;8.566;2024-02-21T04:59:08;6.32;;;2.47;;
39242;SDS011;29823;47.404;8.566;2024-02-21T05:01:36;3.40;;;2.08;;
39242;SDS011;29823;47.404;8.566;2024-02-21T05:04:04;5.53;;;2.72;;
39242;SDS011;29823;47.404;8.566;2024-02-21T05:06:32;4.70;;;2.63;;
39242;SDS011;29823;47.404;8.566;2024-02-21T05:08:59;5.85;;;2.83;;
39242;SDS011;29823;47.404;8.566;2024-02-21T05:11:27;7.35;;;3.45;;
39242;SDS011;29823;47.404;8.566;2024-02-21T05:13:55;7.93;;;2.92;;
39242;SDS011;29823;47.404;8.566;2024-02-21T05:16:24;5.90;;;2.55;;
39242;SDS011;29823;47.404;8.566;2024-02-21T05:18:51;6.13;;;2.90;;
39242;SDS011;29823;47.404;8.566;2024-02-21T05:21:19;8.60;;;2.42;;
39242;SDS011;29823;47.404;8.566;2024-02-21T05:23:47;2.85;;;1.70;;
39242;SDS011;29823;47.404;8.566;2024-02-21T05:26:19;4.20;;;1.58;;
39242;SDS011;29823;47.404;8.566;2024-02-21T05:28:47;4.65;;;1.60;;
39242;SDS011;29823;47.404;8.566;2024-02-21T05:31:15;2.50;;;1.65;;
39242;SDS011;29823;47.404;8.566;2024-02-21T05:33:44;5.63;;;2.40;;
39242;SDS011;29823;47.404;8.566;2024-02-21T05:36:12;6.32;;;1.83;;
39242;SDS011;29823;47.404;8.566;2024-02-21T05:38:39;5.95;;;2.55;;
39242;SDS011;29823;47.404;8.566;2024-02-21T05:41:07;4.47;;;2.22;;
39242;SDS011;29823;47.404;8.566;2024-02-21T05:43:38;2.85;;;1.90;;
39242;SDS011;29823;47.404;8.566;2024-02-21T05:46:05;3.08;;;1.70;;
39242;SDS011;29823;47.404;8.566;2024-02-21T05:48:33;9.13;;;2.03;;
39242;SDS011;29823;47.404;8.566;2024-02-21T05:51:06;4.18;;;2.08;;
39242;SDS011;29823;47.404;8.566;2024-02-21T05:53:34;7.50;;;2.25;;
39242;SDS011;29823;47.404;8.566;2024-02-21T05:56:02;7.50;;;3.67;;
39242;SDS011;29823;47.404;8.566;2024-02-21T05:58:31;4.35;;;2.50;;
39242;SDS011;29823;47.404;8.566;2024-02-21T06:00:59;2.53;;;1.90;;
39242;SDS011;29823;47.404;8.566;2024-02-21T06:03:28;4.55;;;2.25;;
39242;SDS011;29823;47.404;8.566;2024-02-21T06:05:56;3.67;;;2.25;;
39242;SDS011;29823;47.404;8.566;2024-02-21T06:08:25;4.50;;;1.88;;
39242;SDS011;29823;47.404;8.566;2024-02-21T06:10:52;7.25;;;3.05;;
39242;SDS011;29823;47.404;8.566;2024-02-21T06:13:21;3.97;;;2.30;;
39242;SDS011;29823;47.404;8.566;2024-02-21T06:15:49;8.15;;;2.25;;
39242;SDS011;29823;47.404;8.566;2024-02-21T06:18:17;3.53;;;2.00;;
39242;SDS011;29823;47.404;8.566;2024-02-21T06:20:44;5.03;;;1.80;;
39242;SDS011;29823;47.404;8.566;2024-02-21T06:23:12;3.65;;;1.50;;
39242;SDS011;29823;47.404;8.566;2024-02-21T06:25:43;1.30;;;1.00;;
39242;SDS011;29823;47.404;8.566;2024-02-21T06:28:10;3.13;;;0.80;;
39242;SDS011;29823;47.404;8.566;2024-02-21T06:30:39;2.08;;;0.70;;
39242;SDS011;29823;47.404;8.566;2024-02-21T06:33:07;4.35;;;1.35;;
39242;SDS011;29823;47.404;8.566;2024-02-21T06:35:35;5.22;;;1.23;;
39242;SDS011;29823;47.404;8.566;2024-02-21T06:38:04;2.65;;;1.13;;
39242;SDS011;29823;47.404;8.566;2024-02-21T06:40:32;4.30;;;1.10;;
39242;SDS011;29823;47.404;8.566;2024-02-21T06:43:06;5.75;;;1.17;;
39242;SDS011;29823;47.404;8.566;2024-02-21T06:45:34;1.33;;;1.00;;
39242;SDS011;29823;47.404;8.566;2024-02-21T06:48:02;2.55;;;1.45;;
39242;SDS011;29823;47.404;8.566;2024-02-21T06:50:29;2.65;;;1.30;;
39242;SDS011;29823;47.404;8.566;2024-02-21T06:52:57;3.90;;;1.42;;
39242;SDS011;29823;47.404;8.566;2024-02-21T06:55:24;3.80;;;1.45;;
39242;SDS011;29823;47.404;8.566;2024-02-21T06:57:52;2.35;;;1.13;;
39242;SDS011;29823;47.404;8.566;2024-02-21T07:00:21;2.72;;;1.30;;
39242;SDS011;29823;47.404;8.566;2024-02-21T07:02:51;1.17;;;1.02;;
39242;SDS011;29823;47.404;8.566;2024-02-21T07:05:18;2.58;;;1.00;;
39242;SDS011;29823;47.404;8.566;2024-02-21T07:07:46;3.10;;;1.20;;
39242;SDS011;29823;47.404;8.566;2024-02-21T07:10:14;2.00;;;1.10;;
39242;SDS011;29823;47.404;8.566;2024-02-21T07:12:41;1.25;;;0.80;;
39242;SDS011;29823;47.404;8.566;2024-02-21T07:15:09;3.85;;;0.73;;
39242;SDS011;29823;47.404;8.566;2024-02-21T07:17:38;5.63;;;1.10;;
39242;SDS011;29823;47.404;8.566;2024-02-21T07:20:07;5.80;;;1.63;;
39242;SDS011;29823;47.404;8.566;2024-02-21T07:22:35;2.85;;;1.40;;
39242;SDS011;29823;47.404;8.566;2024-02-21T07:25:03;1.88;;;1.17;;
39242;SDS011;29823;47.404;8.566;2024-02-21T07:27:32;1.38;;;0.82;;
39242;SDS011;29823;47.404;8.566;2024-02-21T07:29:59;1.25;;;0.95;;
39242;SDS011;29823;47.404;8.566;2024-02-21T07:32:27;2.88;;;1.15;;
39242;SDS011;29823;47.404;8.566;2024-02-21T07:34:57;2.53;;;1.10;;
39242;SDS011;29823;47.404;8.566;2024-02-21T07:37:25;3.70;;;1.42;;
39242;SDS011;29823;47.404;8.566;2024-02-21T07:39:54;4.95;;;1.48;;
39242;SDS011;29823;47.404;8.566;2024-02-21T07:42:22;4.97;;;1.77;;
39242;SDS011;29823;47.404;8.566;2024-02-21T07:44:50;3.58;;;2.08;;
39242;SDS011;29823;47.404;8.566;2024-02-21T07:47:17;3.30;;;1.88;;
39242;SDS011;29823;47.404;8.566;2024-02-21T07:49:45;7.78;;;1.95;;
39242;SDS011;29823;47.404;8.566;2024-02-21T07:52:14;7.13;;;2.38;;
39242;SDS011;29823;47.404;8.566;2024-02-21T07:54:42;7.55;;;2.70;;
39242;SDS011;29823;47.404;8.566;2024-02-21T07:57:09;4.50;;;2.45;;
39242;SDS011;29823;47.404;8.566;2024-02-21T07:59:37;6.70;;;2.50;;
39242;SDS011;29823;47.404;8.566;2024-02-21T08:02:05;6.95;;;2.55;;
39242;SDS011;29823;47.404;8.566;2024-02-21T08:04:33;6.03;;;2.05;;
39242;SDS011;29823;47.404;8.566;2024-02-21T08:07:01;15.90;;;3.47;;
39242;SDS011;29823;47.404;8.566;2024-02-21T08:09:31;12.68;;;3.20;;
39242;SDS011;29823;47.404;8.566;2024-02-21T08:11:59;10.02;;;2.60;;
39242;SDS011;29823;47.404;8.566;2024-02-21T08:14:27;7.93;;;2.60;;
39242;SDS011;29823;47.404;8.566;2024-02-21T08:16:54;10.95;;;2.67;;
39242;SDS011;29823;47.404;8.566;2024-02-21T08:19:23;10.38;;;3.10;;
39242;SDS011;29823;47.404;8.566;2024-02-21T08:21:51;7.90;;;2.75;;
39242;SDS011;29823;47.404;8.566;2024-02-21T08:24:18;7.40;;;2.50;;
39242;SDS011;29823;47.404;8.566;2024-02-21T08:26:48;10.48;;;2.95;;
39242;SDS011;29823;47.404;8.566;2024-02-21T08:29:15;6.55;;;2.55;;
39242;SDS011;29823;47.404;8.566;2024-02-21T08:31:43;7.05;;;2.78;;
39242;SDS011;29823;47.404;8.566;2024-02-21T08:34:11;7.72;;;2.63;;
39242;SDS011;29823;47.404;8.566;2024-02-21T08:36:40;8.93;;;2.65;;
39242;SDS011;29823;47.404;8.566;2024-02-21T08:39:07;5.28;;;2.25;;
39242;SDS011;29823;47.404;8.566;2024-02-21T08:41:36;10.25;;;2.50;;
39242;SDS011;29823;47.404;8.566;2024-02-21T08:44:23;9.32;;;2.75;;
39242;SDS011;29823;47.404;8.566;2024-02-21T08:46:52;9.43;;;2.28;;
39242;SDS011;29823;47.404;8.566;2024-02-21T08:49:20;7.68;;;2.20;;
39242;SDS011;29823;47.404;8.566;2024-02-21T08:51:48;12.93;;;2.70;;
39242;SDS011;29823;47.404;8.566;2024-02-21T08:54:16;4.20;;;1.83;;
39242;SDS011;29823;47.404;8.566;2024-02-21T08:56:44;4.70;;;2.00;;
39242;SDS011;29823;47.404;8.566;2024-02-21T08:59:12;4.18;;;1.83;;
39242;SDS011;29823;47.404;8.566;2024-02-21T09:01:43;8.55;;;1.95;;
39242;SDS011;29823;47.404;8.566;2024-02-21T09:04:11;10.07;;;1.77;;
39242;SDS011;29823;47.404;8.566;2024-02-21T09:06:39;9.68;;;2.13;;
39242;SDS011;29823;47.404;8.566;2024-02-21T09:09:09;6.85;;;2.10;;
39242;SDS011;29823;47.404;8.566;2024-02-21T09:11:37;5.00;;;1.92;;
39242;SDS011;29823;47.404;8.566;2024-02-21T09:14:04;9.25;;;2.20;;
39242;SDS011;29823;47.404;8.566;2024-02-21T09:16:32;6.82;;;1.95;;
39242;SDS011;29823;47.404;8.566;2024-02-21T09:19:01;5.78;;;1.85;;
39242;SDS011;29823;47.404;8.566;2024-02-21T09:21:29;4.95;;;1.80;;
39242;SDS011;29823;47.404;8.566;2024-02-21T09:23:57;4.22;;;2.00;;
39242;SDS011;29823;47.404;8.566;2024-02-21T09:26:26;8.70;;;2.05;;
39242;SDS011;29823;47.404;8.566;2024-02-21T09:28:53;3.03;;;1.67;;
39242;SDS011;29823;47.404;8.566;2024-02-21T09:31:21;3.42;;;1.70;;
39242;SDS011;29823;47.404;8.566;2024-02-21T09:33:49;6.72;;;1.30;;
39242;SDS011;29823;47.404;8.566;2024-02-21T09:36:18;9.18;;;1.45;;
39242;SDS011;29823;47.404;8.566;2024-02-21T09:38:47;6.15;;;1.70;;
39242;SDS011;29823;47.404;8.566;2024-02-21T09:41:16;4.80;;;1.40;;
39242;SDS011;29823;47.404;8.566;2024-02-21T09:43:51;4.47;;;1.27;;
39242;SDS011;29823;47.404;8.566;2024-02-21T09:46:23;6.18;;;1.45;;
39242;SDS011;29823;47.404;8.566;2024-02-21T09:48:56;5.55;;;1.30;;
39242;SDS011;29823;47.404;8.566;2024-02-21T09:51:27;5.28;;;1.50;;
39242;SDS011;29823;47.404;8.566;2024-02-21T09:53:56;10.63;;;1.40;;
39242;SDS011;29823;47.404;8.566;2024-02-21T09:56:40;4.70;;;2.05;;
39242;SDS011;29823;47.404;8.566;2024-02-21T09:59:08;5.50;;;1.20;;
39242;SDS011;29823;47.404;8.566;2024-02-21T10:01:36;4.13;;;1.20;;
39242;SDS011;29823;47.404;8.566;2024-02-21T10:04:04;4.60;;;1.05;;
39242;SDS011;29823;47.404;8.566;2024-02-21T10:06:34;3.13;;;1.17;;
39242;SDS011;29823;47.404;8.566;2024-02-21T10:09:03;6.07;;;1.25;;
39242;SDS011;29823;47.404;8.566;2024-02-21T10:11:31;3.63;;;1.10;;
39242;SDS011;29823;47.404;8.566;2024-02-21T10:14:04;3.95;;;1.50;;
39242;SDS011;29823;47.404;8.566;2024-02-21T10:16:33;2.58;;;1.30;;
39242;SDS011;29823;47.404;8.566;2024-02-21T10:19:01;5.10;;;1.10;;
39242;SDS011;29823;47.404;8.566;2024-02-21T10:21:30;3.83;;;1.25;;
39242;SDS011;29823;47.404;8.566;2024-02-21T10:23:59;8.98;;;1.33;;
39242;SDS011;29823;47.404;8.566;2024-02-21T10:26:26;3.40;;;1.42;;
39242;SDS011;29823;47.404;8.566;2024-02-21T10:28:54;3.42;;;1.30;;
39242;SDS011;29823;47.404;8.566;2024-02-21T10:31:22;4.13;;;1.10;;
39242;SDS011;29823;47.404;8.566;2024-02-21T10:33:55;4.95;;;1.30;;
39242;SDS011;29823;47.404;8.566;2024-02-21T10:38:51;3.42;;;1.65;;
39242;SDS011;29823;47.404;8.566;2024-02-21T10:41:20;1.63;;;1.20;;
39242;SDS011;29823;47.404;8.566;2024-02-21T10:43:49;6.03;;;1.38;;
39242;SDS011;29823;47.404;8.566;2024-02-21T10:46:18;6.88;;;1.48;;
39242;SDS011;29823;47.404;8.566;2024-02-21T10:48:46;2.22;;;1.20;;
39242;SDS011;29823;47.404;8.566;2024-02-21T10:51:15;7.38;;;1.60;;
39242;SDS011;29823;47.404;8.566;2024-02-21T10:53:48;2.28;;;1.23;;
39242;SDS011;29823;47.404;8.566;2024-02-21T10:56:25;4.43;;;1.80;;
39242;SDS011;29823;47.404;8.566;2024-02-21T10:58:53;1.92;;;1.30;;
39242;SDS011;29823;47.404;8.566;2024-02-21T11:01:23;2.83;;;1.20;;
39242;SDS011;29823;47.404;8.566;2024-02-21T11:03:53;7.38;;;1.33;;
39242;SDS011;29823;47.404;8.566;2024-02-21T11:06:21;3.67;;;1.45;;
39242;SDS011;29823;47.404;8.566;2024-02-21T11:08:59;5.97;;;1.60;;
39242;SDS011;29823;47.404;8.566;2024-02-21T11:11:28;3.55;;;1.35;;
39242;SDS011;29823;47.404;8.566;2024-02-21T11:14:05;4.93;;;1.40;;
39242;SDS011;29823;47.404;8.566;2024-02-21T11:16:36;5.80;;;1.48;;
39242;SDS011;29823;47.404;8.566;2024-02-21T11:19:06;2.83;;;1.27;;
39242;SDS011;29823;47.404;8.566;2024-02-21T11:21:34;2.28;;;1.35;;
39242;SDS011;29823;47.404;8.566;2024-02-21T11:24:03;3.60;;;1.40;;
39242;SDS011;29823;47.404;8.566;2024-02-21T11:26:33;3.35;;;1.42;;
39242;SDS011;29823;47.404;8.566;2024-02-21T11:29:01;3.45;;;1.42;;
39242;SDS011;29823;47.404;8.566;2024-02-21T11:31:38;3.10;;;1.50;;
39242;SDS011;29823;47.404;8.566;2024-02-21T11:34:08;4.45;;;1.52;;
39242;SDS011;29823;47.404;8.566;2024-02-21T11:36:36;6.53;;;1.77;;
39242;SDS011;29823;47.404;8.566;2024-02-21T11:39:04;2.22;;;1.75;;
39242;SDS011;29823;47.404;8.566;2024-02-21T11:41:33;2.25;;;1.25;;
39242;SDS011;29823;47.404;8.566;2024-02-21T11:44:01;5.60;;;1.70;;
39242;SDS011;29823;47.404;8.566;2024-02-21T11:46:30;2.75;;;1.60;;
39242;SDS011;29823;47.404;8.566;2024-02-21T11:48:58;2.95;;;1.52;;
39242;SDS011;29823;47.404;8.566;2024-02-21T11:51:28;2.75;;;1.40;;
39242;SDS011;29823;47.404;8.566;2024-02-21T11:53:55;4.60;;;1.60;;
39242;SDS011;29823;47.404;8.566;2024-02-21T11:56:27;2.13;;;1.10;;
39242;SDS011;29823;47.404;8.566;2024-02-21T11:58:56;7.15;;;1.60;;
39242;SDS011;29823;47.404;8.566;2024-02-21T12:01:26;2.17;;;1.15;;
39242;SDS011;29823;47.404;8.566;2024-02-21T12:03:54;4.78;;;1.52;;
39242;SDS011;29823;47.404;8.566;2024-02-21T12:06:22;3.58;;;1.63;;
39242;SDS011;29823;47.404;8.566;2024-02-21T12:08:50;2.95;;;1.70;;
39242;SDS011;29823;47.404;8.566;2024-02-21T12:11:19;2.47;;;1.40;;
39242;SDS011;29823;47.404;8.566;2024-02-21T12:13:47;4.47;;;1.58;;
39242;SDS011;29823;47.404;8.566;2024-02-21T12:16:17;6.00;;;1.52;;
39242;SDS011;29823;47.404;8.566;2024-02-21T12:18:45;2.90;;;1.60;;
39242;SDS011;29823;47.404;8.566;2024-02-21T12:21:13;3.10;;;1.95;;
39242;SDS011;29823;47.404;8.566;2024-02-21T12:23:41;4.07;;;1.75;;
39242;SDS011;29823;47.404;8.566;2024-02-21T12:26:08;2.63;;;1.60;;
39242;SDS011;29823;47.404;8.566;2024-02-21T12:28:36;4.40;;;1.70;;
39242;SDS011;29823;47.404;8.566;2024-02-21T12:31:04;2.83;;;1.70;;
39242;SDS011;29823;47.404;8.566;2024-02-21T12:33:33;3.88;;;1.52;;
39242;SDS011;29823;47.404;8.566;2024-02-21T12:36:02;3.95;;;1.42;;
39242;SDS011;29823;47.404;8.566;2024-02-21T12:38:32;4.30;;;1.60;;
39242;SDS011;29823;47.404;8.566;2024-02-21T12:40:59;2.95;;;1.48;;
39242;SDS011;29823;47.404;8.566;2024-02-21T12:43:30;3.22;;;1.83;;
39242;SDS011;29823;47.404;8.566;2024-02-21T12:45:58;3.28;;;1.75;;
39242;SDS011;29823;47.404;8.566;2024-02-21T12:48:26;4.07;;;1.65;;
39242;SDS011;29823;47.404;8.566;2024-02-21T12:50:55;5.35;;;1.75;;
39242;SDS011;29823;47.404;8.566;2024-02-21T12:53:23;3.95;;;1.70;;
39242;SDS011;29823;47.404;8.566;2024-02-21T12:55:58;3.28;;;1.83;;
39242;SDS011;29823;47.404;8.566;2024-02-21T12:58:26;3.88;;;1.92;;
39242;SDS011;29823;47.404;8.566;2024-02-21T13:00:55;7.03;;;2.28;;
39242;SDS011;29823;47.404;8.566;2024-02-21T13:03:22;5.07;;;1.90;;
39242;SDS011;29823;47.404;8.566;2024-02-21T13:05:50;4.53;;;1.90;;
39242;SDS011;29823;47.404;8.566;2024-02-21T13:08:19;4.45;;;1.90;;
39242;SDS011;29823;47.404;8.566;2024-02-21T13:10:49;5.45;;;1.65;;
39242;SDS011;29823;47.404;8.566;2024-02-21T13:13:20;3.95;;;2.10;;
39242;SDS011;29823;47.404;8.566;2024-02-21T13:15:48;3.60;;;1.80;;
39242;SDS011;29823;47.404;8.566;2024-02-21T13:18:16;6.03;;;2.30;;
39242;SDS011;29823;47.404;8.566;2024-02-21T13:20:43;6.05;;;1.90;;
39242;SDS011;29823;47.404;8.566;2024-02-21T13:23:11;3.53;;;2.03;;
39242;SDS011;29823;47.404;8.566;2024-02-21T13:25:41;5.75;;;1.98;;
39242;SDS011;29823;47.404;8.566;2024-02-21T13:28:08;9.68;;;1.70;;
39242;SDS011;29823;47.404;8.566;2024-02-21T13:30:37;5.78;;;2.15;;
39242;SDS011;29823;47.404;8.566;2024-02-21T13:33:05;4.63;;;1.75;;
39242;SDS011;29823;47.404;8.566;2024-02-21T13:35:33;5.57;;;1.98;;
39242;SDS011;29823;47.404;8.566;2024-02-21T13:38:03;3.83;;;1.70;;
39242;SDS011;29823;47.404;8.566;2024-02-21T13:40:30;2.83;;;1.73;;
39242;SDS011;29823;47.404;8.566;2024-02-21T13:43:00;3.55;;;2.15;;
39242;SDS011;29823;47.404;8.566;2024-02-21T13:45:28;5.85;;;2.92;;
39242;SDS011;29823;47.404;8.566;2024-02-21T13:47:57;3.50;;;1.95;;
39242;SDS011;29823;47.404;8.566;2024-02-21T13:50:29;5.35;;;2.38;;
39242;SDS011;29823;47.404;8.566;2024-02-21T13:52:57;10.02;;;2.10;;
39242;SDS011;29823;47.404;8.566;2024-02-21T13:55:25;4.57;;;1.90;;
39242;SDS011;29823;47.404;8.566;2024-02-21T13:57:53;2.20;;;1.45;;
39242;SDS011;29823;47.404;8.566;2024-02-21T14:00:22;6.93;;;1.85;;
39242;SDS011;29823;47.404;8.566;2024-02-21T14:02:52;2.83;;;1.33;;
39242;SDS011;29823;47.404;8.566;2024-02-21T14:05:21;4.97;;;1.40;;
39242;SDS011;29823;47.404;8.566;2024-02-21T14:07:49;6.72;;;1.90;;
39242;SDS011;29823;47.404;8.566;2024-02-21T14:10:17;3.03;;;1.48;;
39242;SDS011;29823;47.404;8.566;2024-02-21T14:12:45;3.50;;;1.52;;
39242;SDS011;29823;47.404;8.566;2024-02-21T14:15:14;3.40;;;1.70;;
39242;SDS011;29823;47.404;8.566;2024-02-21T14:17:44;2.83;;;1.83;;
39242;SDS011;29823;47.404;8.566;2024-02-21T14:20:12;3.97;;;1.67;;
39242;SDS011;29823;47.404;8.566;2024-02-21T14:22:43;6.67;;;2.00;;
39242;SDS011;29823;47.404;8.566;2024-02-21T14:25:11;3.00;;;1.48;;
39242;SDS011;29823;47.404;8.566;2024-02-21T14:27:39;4.93;;;1.73;;
39242;SDS011;29823;47.404;8.566;2024-02-21T14:30:07;4.10;;;1.42;;
39242;SDS011;29823;47.404;8.566;2024-02-21T14:32:37;2.75;;;1.52;;
39242;SDS011;29823;47.404;8.566;2024-02-21T14:35:06;2.78;;;1.60;;
39242;SDS011;29823;47.404;8.566;2024-02-21T14:37:35;6.50;;;2.60;;
39242;SDS011;29823;47.404;8.566;2024-02-21T14:40:04;5.32;;;1.80;;
39242;SDS011;29823;47.404;8.566;2024-02-21T14:42:32;3.30;;;1.73;;
39242;SDS011;29823;47.404;8.566;2024-02-21T14:45:00;3.90;;;1.63;;
39242;SDS011;29823;47.404;8.566;2024-02-21T14:47:31;3.70;;;1.43;;
39242;SDS011;29823;47.404;8.566;2024-02-21T14:50:01;6.07;;;2.00;;
39242;SDS011;29823;47.404;8.566;2024-02-21T14:52:31;4.60;;;2.03;;
39242;SDS011;29823;47.404;8.566;2024-02-21T14:55:00;3.33;;;1.90;;